sensor_id;sensor_type;location;lat;lon;timestamp;P1;durP1;ratioP1;P2;durP2;ratioP2
4504;SDS011;2265;48.794;9.520;2023-03-21T00:02:23;4.10;;;2.30;;
4504;SDS011;2265;48.794;9.520;2023-03-21T00:04:53;3.73;;;2.43;;
4504;SDS011;2265;48.794;9.520;2023-03-21T00:07:20;11.23;;;3.03;;
4504;SDS011;2265;48.794;9.520;2023-03-21T00:09:49;3.00;;;2.10;;
4504;SDS011;2265;48.794;9.520;2023-03-21T00:12:16;4.80;;;2.47;;
4504;SDS011;2265;48.794;9.520;2023-03-21T00:14:45;5.93;;;2.50;;
4504;SDS011;2265;48.794;9.520;2023-03-21T00:17:12;3.23;;;1.97;;
4504;SDS011;2265;48.794;9.520;2023-03-21T00:19:40;3.13;;;2.23;;
4504;SDS011;2265;48.794;9.520;2023-03-21T00:22:09;2.47;;;2.30;;
4504;SDS011;2265;48.794;9.520;2023-03-21T00:24:37;4.40;;;2.50;;
4504;SDS011;2265;48.794;9.520;2023-03-21T00:27:06;3.27;;;2.30;;
4504;SDS011;2265;48.794;9.520;2023-03-21T00:29:33;5.53;;;2.40;;
4504;SDS011;2265;48.794;9.520;2023-03-21T00:32:00;4.80;;;2.23;;
4504;SDS011;2265;48.794;9.520;2023-03-21T00:34:27;2.80;;;2.00;;
4504;SDS011;2265;48.794;9.520;2023-03-21T00:36:54;5.00;;;2.43;;
4504;SDS011;2265;48.794;9.520;2023-03-21T00:39:21;3.20;;;2.27;;
4504;SDS011;2265;48.794;9.520;2023-03-21T00:41:48;7.97;;;2.57;;
4504;SDS011;2265;48.794;9.520;2023-03-21T00:44:17;6.90;;;3.00;;
4504;SDS011;2265;48.794;9.520;2023-03-21T00:46:45;3.07;;;2.30;;
4504;SDS011;2265;48.794;9.520;2023-03-21T00:49:12;4.83;;;2.80;;
4504;SDS011;2265;48.794;9.520;2023-03-21T00:51:39;4.10;;;2.60;;
4504;SDS011;2265;48.794;9.520;2023-03-21T00:56:35;3.70;;;2.77;;
4504;SDS011;2265;48.794;9.520;2023-03-21T00:59:02;2.87;;;2.07;;
4504;SDS011;2265;48.794;9.520;2023-03-21T01:01:31;6.00;;;2.93;;
4504;SDS011;2265;48.794;9.520;2023-03-21T01:03:59;4.60;;;2.10;;
4504;SDS011;2265;48.794;9.520;2023-03-21T01:06:29;12.70;;;2.67;;
4504;SDS011;2265;48.794;9.520;2023-03-21T01:08:57;4.30;;;2.57;;
4504;SDS011;2265;48.794;9.520;2023-03-21T01:11:25;6.00;;;2.10;;
4504;SDS011;2265;48.794;9.520;2023-03-21T01:13:53;3.77;;;2.43;;
4504;SDS011;2265;48.794;9.520;2023-03-21T01:16:21;5.63;;;2.63;;
4504;SDS011;2265;48.794;9.520;2023-03-21T01:18:49;3.20;;;2.47;;
4504;SDS011;2265;48.794;9.520;2023-03-21T01:21:16;3.10;;;2.30;;
4504;SDS011;2265;48.794;9.520;2023-03-21T01:23:46;6.50;;;2.80;;
4504;SDS011;2265;48.794;9.520;2023-03-21T01:26:13;2.80;;;2.17;;
4504;SDS011;2265;48.794;9.520;2023-03-21T01:28:41;4.30;;;2.40;;
4504;SDS011;2265;48.794;9.520;2023-03-21T01:31:09;2.73;;;2.20;;
4504;SDS011;2265;48.794;9.520;2023-03-21T01:33:37;3.03;;;2.33;;
4504;SDS011;2265;48.794;9.520;2023-03-21T01:36:06;5.60;;;2.57;;
4504;SDS011;2265;48.794;9.520;2023-03-21T01:38:34;6.27;;;3.13;;
4504;SDS011;2265;48.794;9.520;2023-03-21T01:41:03;3.70;;;2.20;;
4504;SDS011;2265;48.794;9.520;2023-03-21T01:43:31;4.83;;;2.67;;
4504;SDS011;2265;48.794;9.520;2023-03-21T01:49:04;4.00;;;2.40;;
4504;SDS011;2265;48.794;9.520;2023-03-21T01:51:37;3.60;;;2.00;;
4504;SDS011;2265;48.794;9.520;2023-03-21T01:54:07;5.60;;;2.37;;
4504;SDS011;2265;48.794;9.520;2023-03-21T01:56:39;3.67;;;2.50;;
4504;SDS011;2265;48.794;9.520;2023-03-21T01:59:13;3.13;;;1.80;;
4504;SDS011;2265;48.794;9.520;2023-03-21T02:01:45;4.60;;;2.73;;
4504;SDS011;2265;48.794;9.520;2023-03-21T02:04:13;6.37;;;3.03;;
4504;SDS011;2265;48.794;9.520;2023-03-21T02:06:48;4.40;;;2.30;;
4504;SDS011;2265;48.794;9.520;2023-03-21T02:09:17;3.50;;;2.20;;
4504;SDS011;2265;48.794;9.520;2023-03-21T02:11:49;3.60;;;2.63;;
4504;SDS011;2265;48.794;9.520;2023-03-21T02:14:17;3.70;;;2.30;;
4504;SDS011;2265;48.794;9.520;2023-03-21T02:16:50;3.70;;;2.50;;
4504;SDS011;2265;48.794;9.520;2023-03-21T02:19:45;5.70;;;2.30;;
4504;SDS011;2265;48.794;9.520;2023-03-21T02:29:08;6.47;;;2.33;;
4504;SDS011;2265;48.794;9.520;2023-03-21T02:31:59;2.40;;;2.00;;
4504;SDS011;2265;48.794;9.520;2023-03-21T02:34:44;3.77;;;2.27;;
4504;SDS011;2265;48.794;9.520;2023-03-21T02:37:27;4.37;;;2.80;;
4504;SDS011;2265;48.794;9.520;2023-03-21T02:40:01;3.47;;;2.30;;
4504;SDS011;2265;48.794;9.520;2023-03-21T02:42:39;2.17;;;1.70;;
4504;SDS011;2265;48.794;9.520;2023-03-21T02:45:15;2.83;;;2.23;;
4504;SDS011;2265;48.794;9.520;2023-03-21T02:47:45;4.00;;;2.10;;
4504;SDS011;2265;48.794;9.520;2023-03-21T02:50:17;3.00;;;2.30;;
4504;SDS011;2265;48.794;9.520;2023-03-21T02:52:51;4.17;;;2.27;;
4504;SDS011;2265;48.794;9.520;2023-03-21T02:55:21;8.80;;;2.10;;
4504;SDS011;2265;48.794;9.520;2023-03-21T02:57:50;4.43;;;2.53;;
4504;SDS011;2265;48.794;9.520;2023-03-21T03:00:23;4.50;;;2.70;;
4504;SDS011;2265;48.794;9.520;2023-03-21T03:02:52;3.83;;;2.27;;
4504;SDS011;2265;48.794;9.520;2023-03-21T03:05:22;15.73;;;2.57;;
4504;SDS011;2265;48.794;9.520;2023-03-21T03:08:01;4.93;;;2.30;;
4504;SDS011;2265;48.794;9.520;2023-03-21T03:10:43;3.93;;;2.53;;
4504;SDS011;2265;48.794;9.520;2023-03-21T03:13:20;5.70;;;2.70;;
4504;SDS011;2265;48.794;9.520;2023-03-21T03:15:59;2.93;;;2.17;;
4504;SDS011;2265;48.794;9.520;2023-03-21T03:18:36;3.50;;;2.30;;
4504;SDS011;2265;48.794;9.520;2023-03-21T03:21:08;3.63;;;2.27;;
4504;SDS011;2265;48.794;9.520;2023-03-21T03:23:43;5.83;;;2.70;;
4504;SDS011;2265;48.794;9.520;2023-03-21T03:26:15;4.07;;;2.73;;
4504;SDS011;2265;48.794;9.520;2023-03-21T03:28:45;12.23;;;2.47;;
4504;SDS011;2265;48.794;9.520;2023-03-21T03:31:19;2.70;;;2.10;;
4504;SDS011;2265;48.794;9.520;2023-03-21T03:33:52;3.10;;;2.27;;
4504;SDS011;2265;48.794;9.520;2023-03-21T03:36:22;3.67;;;2.53;;
4504;SDS011;2265;48.794;9.520;2023-03-21T03:38:53;3.30;;;1.73;;
4504;SDS011;2265;48.794;9.520;2023-03-21T03:41:23;4.33;;;2.43;;
4504;SDS011;2265;48.794;9.520;2023-03-21T03:43:53;3.90;;;2.63;;
4504;SDS011;2265;48.794;9.520;2023-03-21T03:46:24;4.63;;;2.60;;
4504;SDS011;2265;48.794;9.520;2023-03-21T03:48:57;2.90;;;2.00;;
4504;SDS011;2265;48.794;9.520;2023-03-21T03:51:28;4.40;;;2.40;;
4504;SDS011;2265;48.794;9.520;2023-03-21T03:54:02;3.07;;;2.00;;
4504;SDS011;2265;48.794;9.520;2023-03-21T03:56:33;4.50;;;2.50;;
4504;SDS011;2265;48.794;9.520;2023-03-21T03:59:01;5.50;;;2.60;;
4504;SDS011;2265;48.794;9.520;2023-03-21T04:01:31;7.07;;;2.50;;
4504;SDS011;2265;48.794;9.520;2023-03-21T04:03:59;5.73;;;2.40;;
4504;SDS011;2265;48.794;9.520;2023-03-21T04:06:26;2.30;;;2.10;;
4504;SDS011;2265;48.794;9.520;2023-03-21T04:08:54;4.00;;;2.30;;
4504;SDS011;2265;48.794;9.520;2023-03-21T04:11:22;3.73;;;2.60;;
4504;SDS011;2265;48.794;9.520;2023-03-21T04:13:50;4.10;;;2.47;;
4504;SDS011;2265;48.794;9.520;2023-03-21T04:16:17;5.07;;;2.17;;
4504;SDS011;2265;48.794;9.520;2023-03-21T04:18:44;3.13;;;2.17;;
4504;SDS011;2265;48.794;9.520;2023-03-21T04:21:13;3.17;;;2.37;;
4504;SDS011;2265;48.794;9.520;2023-03-21T04:23:40;3.87;;;2.47;;
4504;SDS011;2265;48.794;9.520;2023-03-21T04:26:08;2.57;;;2.03;;
4504;SDS011;2265;48.794;9.520;2023-03-21T04:28:38;4.57;;;2.80;;
4504;SDS011;2265;48.794;9.520;2023-03-21T04:31:06;3.20;;;2.40;;
4504;SDS011;2265;48.794;9.520;2023-03-21T04:33:34;3.00;;;2.10;;
4504;SDS011;2265;48.794;9.520;2023-03-21T04:36:05;4.30;;;2.20;;
4504;SDS011;2265;48.794;9.520;2023-03-21T04:38:44;5.37;;;2.20;;
4504;SDS011;2265;48.794;9.520;2023-03-21T04:41:12;2.87;;;1.93;;
4504;SDS011;2265;48.794;9.520;2023-03-21T04:43:40;4.27;;;2.00;;
4504;SDS011;2265;48.794;9.520;2023-03-21T04:46:08;4.80;;;2.77;;
4504;SDS011;2265;48.794;9.520;2023-03-21T04:48:36;2.90;;;2.30;;
4504;SDS011;2265;48.794;9.520;2023-03-21T04:51:03;2.80;;;2.10;;
4504;SDS011;2265;48.794;9.520;2023-03-21T04:53:31;5.53;;;2.50;;
4504;SDS011;2265;48.794;9.520;2023-03-21T04:55:58;3.43;;;2.20;;
4504;SDS011;2265;48.794;9.520;2023-03-21T04:58:25;3.57;;;2.20;;
4504;SDS011;2265;48.794;9.520;2023-03-21T05:00:54;4.57;;;2.23;;
4504;SDS011;2265;48.794;9.520;2023-03-21T05:03:21;2.83;;;2.13;;
4504;SDS011;2265;48.794;9.520;2023-03-21T05:05:48;4.90;;;2.70;;
4504;SDS011;2265;48.794;9.520;2023-03-21T05:08:15;3.50;;;2.10;;
4504;SDS011;2265;48.794;9.520;2023-03-21T05:10:42;3.50;;;2.63;;
4504;SDS011;2265;48.794;9.520;2023-03-21T05:13:09;4.00;;;2.10;;
4504;SDS011;2265;48.794;9.520;2023-03-21T05:15:37;3.93;;;2.00;;
4504;SDS011;2265;48.794;9.520;2023-03-21T05:18:06;3.33;;;2.10;;
4504;SDS011;2265;48.794;9.520;2023-03-21T05:20:36;2.83;;;2.27;;
4504;SDS011;2265;48.794;9.520;2023-03-21T05:23:06;2.70;;;2.10;;
4504;SDS011;2265;48.794;9.520;2023-03-21T05:25:35;5.90;;;2.07;;
4504;SDS011;2265;48.794;9.520;2023-03-21T05:28:02;7.60;;;2.97;;
4504;SDS011;2265;48.794;9.520;2023-03-21T05:30:30;4.60;;;2.13;;
4504;SDS011;2265;48.794;9.520;2023-03-21T05:32:58;4.67;;;2.03;;
4504;SDS011;2265;48.794;9.520;2023-03-21T05:35:26;2.93;;;1.87;;
4504;SDS011;2265;48.794;9.520;2023-03-21T05:37:54;3.80;;;2.47;;
4504;SDS011;2265;48.794;9.520;2023-03-21T05:40:21;3.13;;;2.10;;
4504;SDS011;2265;48.794;9.520;2023-03-21T05:42:48;2.40;;;1.67;;
4504;SDS011;2265;48.794;9.520;2023-03-21T05:45:18;4.53;;;2.27;;
4504;SDS011;2265;48.794;9.520;2023-03-21T05:47:45;3.00;;;1.80;;
4504;SDS011;2265;48.794;9.520;2023-03-21T05:50:12;2.63;;;2.03;;
4504;SDS011;2265;48.794;9.520;2023-03-21T05:52:44;4.47;;;2.53;;
4504;SDS011;2265;48.794;9.520;2023-03-21T05:55:11;2.20;;;1.87;;
4504;SDS011;2265;48.794;9.520;2023-03-21T05:57:39;2.67;;;2.27;;
4504;SDS011;2265;48.794;9.520;2023-03-21T06:00:07;3.20;;;2.20;;
4504;SDS011;2265;48.794;9.520;2023-03-21T06:02:36;5.00;;;2.40;;
4504;SDS011;2265;48.794;9.520;2023-03-21T06:05:04;4.60;;;2.30;;
4504;SDS011;2265;48.794;9.520;2023-03-21T06:07:31;5.90;;;2.63;;
4504;SDS011;2265;48.794;9.520;2023-03-21T06:10:01;2.47;;;1.97;;
4504;SDS011;2265;48.794;9.520;2023-03-21T06:12:28;3.73;;;2.30;;
4504;SDS011;2265;48.794;9.520;2023-03-21T06:14:55;3.33;;;2.03;;
4504;SDS011;2265;48.794;9.520;2023-03-21T06:17:23;5.00;;;2.37;;
4504;SDS011;2265;48.794;9.520;2023-03-21T06:19:50;4.10;;;2.07;;
4504;SDS011;2265;48.794;9.520;2023-03-21T06:22:18;5.60;;;2.63;;
4504;SDS011;2265;48.794;9.520;2023-03-21T06:24:45;2.20;;;1.80;;
4504;SDS011;2265;48.794;9.520;2023-03-21T06:27:14;3.63;;;2.60;;
4504;SDS011;2265;48.794;9.520;2023-03-21T06:29:41;2.73;;;2.20;;
4504;SDS011;2265;48.794;9.520;2023-03-21T06:32:10;3.57;;;2.30;;
4504;SDS011;2265;48.794;9.520;2023-03-21T06:34:37;2.70;;;1.97;;
4504;SDS011;2265;48.794;9.520;2023-03-21T06:37:04;4.23;;;2.30;;
4504;SDS011;2265;48.794;9.520;2023-03-21T06:39:31;4.83;;;2.63;;
4504;SDS011;2265;48.794;9.520;2023-03-21T06:41:58;5.57;;;2.60;;
4504;SDS011;2265;48.794;9.520;2023-03-21T06:44:27;2.70;;;1.97;;
4504;SDS011;2265;48.794;9.520;2023-03-21T06:46:55;3.13;;;2.23;;
4504;SDS011;2265;48.794;9.520;2023-03-21T06:49:22;3.63;;;2.40;;
4504;SDS011;2265;48.794;9.520;2023-03-21T06:51:50;7.00;;;2.80;;
4504;SDS011;2265;48.794;9.520;2023-03-21T06:54:17;4.13;;;2.77;;
4504;SDS011;2265;48.794;9.520;2023-03-21T06:56:44;3.43;;;2.17;;
4504;SDS011;2265;48.794;9.520;2023-03-21T06:59:12;5.20;;;2.30;;
4504;SDS011;2265;48.794;9.520;2023-03-21T07:01:41;5.17;;;2.73;;
4504;SDS011;2265;48.794;9.520;2023-03-21T07:04:08;3.23;;;2.40;;
4504;SDS011;2265;48.794;9.520;2023-03-21T07:06:35;4.17;;;2.53;;
4504;SDS011;2265;48.794;9.520;2023-03-21T07:09:05;5.10;;;2.67;;
4504;SDS011;2265;48.794;9.520;2023-03-21T07:11:32;4.70;;;2.70;;
4504;SDS011;2265;48.794;9.520;2023-03-21T07:14:01;5.20;;;2.37;;
4504;SDS011;2265;48.794;9.520;2023-03-21T07:16:30;6.10;;;2.37;;
4504;SDS011;2265;48.794;9.520;2023-03-21T07:19:00;5.63;;;3.03;;
4504;SDS011;2265;48.794;9.520;2023-03-21T07:21:27;7.07;;;3.43;;
4504;SDS011;2265;48.794;9.520;2023-03-21T07:23:54;4.60;;;2.40;;
4504;SDS011;2265;48.794;9.520;2023-03-21T07:26:21;4.87;;;2.60;;
4504;SDS011;2265;48.794;9.520;2023-03-21T07:28:48;6.63;;;3.17;;
4504;SDS011;2265;48.794;9.520;2023-03-21T07:31:16;3.30;;;2.47;;
4504;SDS011;2265;48.794;9.520;2023-03-21T07:33:43;6.00;;;2.93;;
4504;SDS011;2265;48.794;9.520;2023-03-21T07:36:14;3.80;;;2.90;;
4504;SDS011;2265;48.794;9.520;2023-03-21T07:38:41;5.03;;;2.80;;
4504;SDS011;2265;48.794;9.520;2023-03-21T07:41:10;4.57;;;2.30;;
4504;SDS011;2265;48.794;9.520;2023-03-21T07:43:37;4.83;;;2.67;;
4504;SDS011;2265;48.794;9.520;2023-03-21T07:46:04;5.20;;;3.00;;
4504;SDS011;2265;48.794;9.520;2023-03-21T07:48:31;3.60;;;2.63;;
4504;SDS011;2265;48.794;9.520;2023-03-21T07:50:59;4.60;;;2.57;;
4504;SDS011;2265;48.794;9.520;2023-03-21T07:53:27;4.37;;;2.73;;
4504;SDS011;2265;48.794;9.520;2023-03-21T07:55:54;3.20;;;2.37;;
4504;SDS011;2265;48.794;9.520;2023-03-21T07:58:25;5.57;;;3.10;;
4504;SDS011;2265;48.794;9.520;2023-03-21T08:00:52;6.80;;;2.90;;
4504;SDS011;2265;48.794;9.520;2023-03-21T08:03:20;4.10;;;2.60;;
4504;SDS011;2265;48.794;9.520;2023-03-21T08:05:50;5.53;;;3.07;;
4504;SDS011;2265;48.794;9.520;2023-03-21T08:08:17;5.90;;;3.13;;
4504;SDS011;2265;48.794;9.520;2023-03-21T08:10:46;5.73;;;3.00;;
4504;SDS011;2265;48.794;9.520;2023-03-21T08:13:13;6.10;;;3.00;;
4504;SDS011;2265;48.794;9.520;2023-03-21T08:15:40;6.33;;;3.60;;
4504;SDS011;2265;48.794;9.520;2023-03-21T08:18:08;4.50;;;2.90;;
4504;SDS011;2265;48.794;9.520;2023-03-21T08:20:38;7.23;;;2.43;;
4504;SDS011;2265;48.794;9.520;2023-03-21T08:23:05;4.83;;;3.00;;
4504;SDS011;2265;48.794;9.520;2023-03-21T08:25:32;6.03;;;3.27;;
4504;SDS011;2265;48.794;9.520;2023-03-21T08:28:01;4.27;;;2.80;;
4504;SDS011;2265;48.794;9.520;2023-03-21T08:30:29;5.50;;;3.20;;
4504;SDS011;2265;48.794;9.520;2023-03-21T08:32:56;4.43;;;2.67;;
4504;SDS011;2265;48.794;9.520;2023-03-21T08:35:26;5.57;;;2.97;;
4504;SDS011;2265;48.794;9.520;2023-03-21T08:37:55;3.87;;;2.37;;
4504;SDS011;2265;48.794;9.520;2023-03-21T08:40:23;5.43;;;2.53;;
4504;SDS011;2265;48.794;9.520;2023-03-21T08:42:50;3.77;;;2.53;;
4504;SDS011;2265;48.794;9.520;2023-03-21T08:45:18;3.93;;;2.23;;
4504;SDS011;2265;48.794;9.520;2023-03-21T08:47:47;4.10;;;2.43;;
4504;SDS011;2265;48.794;9.520;2023-03-21T08:50:15;4.07;;;2.60;;
4504;SDS011;2265;48.794;9.520;2023-03-21T08:52:43;2.90;;;2.33;;
4504;SDS011;2265;48.794;9.520;2023-03-21T08:55:11;2.90;;;1.90;;
4504;SDS011;2265;48.794;9.520;2023-03-21T08:57:39;2.40;;;2.10;;
4504;SDS011;2265;48.794;9.520;2023-03-21T09:00:07;4.73;;;2.63;;
4504;SDS011;2265;48.794;9.520;2023-03-21T09:02:40;3.77;;;2.53;;
4504;SDS011;2265;48.794;9.520;2023-03-21T09:05:09;3.10;;;1.87;;
4504;SDS011;2265;48.794;9.520;2023-03-21T09:07:37;3.60;;;2.40;;
4504;SDS011;2265;48.794;9.520;2023-03-21T09:10:07;3.97;;;2.30;;
4504;SDS011;2265;48.794;9.520;2023-03-21T09:12:37;3.10;;;2.00;;
4504;SDS011;2265;48.794;9.520;2023-03-21T09:15:06;2.17;;;1.83;;
4504;SDS011;2265;48.794;9.520;2023-03-21T09:17:34;3.10;;;2.00;;
4504;SDS011;2265;48.794;9.520;2023-03-21T09:20:08;4.47;;;2.20;;
4504;SDS011;2265;48.794;9.520;2023-03-21T09:22:42;3.43;;;2.40;;
4504;SDS011;2265;48.794;9.520;2023-03-21T09:25:10;3.67;;;2.23;;
4504;SDS011;2265;48.794;9.520;2023-03-21T09:27:38;3.53;;;2.10;;
4504;SDS011;2265;48.794;9.520;2023-03-21T09:30:06;2.20;;;1.97;;
4504;SDS011;2265;48.794;9.520;2023-03-21T09:32:35;4.30;;;3.07;;
4504;SDS011;2265;48.794;9.520;2023-03-21T09:35:02;3.83;;;2.10;;
4504;SDS011;2265;48.794;9.520;2023-03-21T09:37:34;3.00;;;2.03;;
4504;SDS011;2265;48.794;9.520;2023-03-21T09:40:03;2.93;;;1.97;;
4504;SDS011;2265;48.794;9.520;2023-03-21T09:42:33;2.80;;;1.83;;
4504;SDS011;2265;48.794;9.520;2023-03-21T09:45:09;4.00;;;1.87;;
4504;SDS011;2265;48.794;9.520;2023-03-21T09:47:43;2.10;;;1.80;;
4504;SDS011;2265;48.794;9.520;2023-03-21T09:50:18;10.63;;;3.00;;
4504;SDS011;2265;48.794;9.520;2023-03-21T09:52:54;3.87;;;2.10;;
4504;SDS011;2265;48.794;9.520;2023-03-21T09:55:23;2.50;;;1.93;;
4504;SDS011;2265;48.794;9.520;2023-03-21T09:57:57;2.60;;;1.90;;
4504;SDS011;2265;48.794;9.520;2023-03-21T10:00:32;3.10;;;2.00;;
4504;SDS011;2265;48.794;9.520;2023-03-21T10:03:03;2.40;;;1.90;;
4504;SDS011;2265;48.794;9.520;2023-03-21T10:05:34;3.40;;;2.20;;
4504;SDS011;2265;48.794;9.520;2023-03-21T10:08:11;3.10;;;2.03;;
4504;SDS011;2265;48.794;9.520;2023-03-21T10:10:45;2.87;;;1.90;;
4504;SDS011;2265;48.794;9.520;2023-03-21T10:13:18;1.93;;;1.50;;
4504;SDS011;2265;48.794;9.520;2023-03-21T10:15:47;2.93;;;1.80;;
4504;SDS011;2265;48.794;9.520;2023-03-21T10:18:17;3.43;;;2.00;;
4504;SDS011;2265;48.794;9.520;2023-03-21T10:20:48;3.80;;;2.20;;
4504;SDS011;2265;48.794;9.520;2023-03-21T10:23:18;4.00;;;2.07;;
4504;SDS011;2265;48.794;9.520;2023-03-21T10:25:47;2.80;;;1.80;;
4504;SDS011;2265;48.794;9.520;2023-03-21T10:28:17;2.20;;;1.60;;
4504;SDS011;2265;48.794;9.520;2023-03-21T10:30:48;2.37;;;1.60;;
4504;SDS011;2265;48.794;9.520;2023-03-21T10:33:18;1.83;;;1.57;;
4504;SDS011;2265;48.794;9.520;2023-03-21T10:35:49;2.13;;;1.53;;
4504;SDS011;2265;48.794;9.520;2023-03-21T10:38:22;2.17;;;1.70;;
4504;SDS011;2265;48.794;9.520;2023-03-21T10:40:51;1.83;;;1.60;;
4504;SDS011;2265;48.794;9.520;2023-03-21T10:46:06;1.73;;;1.70;;
4504;SDS011;2265;48.794;9.520;2023-03-21T10:48:36;2.57;;;1.90;;
4504;SDS011;2265;48.794;9.520;2023-03-21T10:51:05;1.50;;;1.40;;
4504;SDS011;2265;48.794;9.520;2023-03-21T10:53:37;2.30;;;1.57;;
4504;SDS011;2265;48.794;9.520;2023-03-21T10:56:06;2.27;;;1.70;;
4504;SDS011;2265;48.794;9.520;2023-03-21T10:58:37;1.70;;;1.40;;
4504;SDS011;2265;48.794;9.520;2023-03-21T11:01:09;1.80;;;1.60;;
4504;SDS011;2265;48.794;9.520;2023-03-21T11:03:41;1.87;;;1.50;;
4504;SDS011;2265;48.794;9.520;2023-03-21T11:06:12;1.80;;;1.50;;
4504;SDS011;2265;48.794;9.520;2023-03-21T11:08:44;2.20;;;1.70;;
4504;SDS011;2265;48.794;9.520;2023-03-21T11:11:18;2.50;;;1.80;;
4504;SDS011;2265;48.794;9.520;2023-03-21T11:13:54;1.83;;;1.43;;
4504;SDS011;2265;48.794;9.520;2023-03-21T11:16:24;2.80;;;1.70;;
4504;SDS011;2265;48.794;9.520;2023-03-21T11:19:00;1.70;;;1.60;;
4504;SDS011;2265;48.794;9.520;2023-03-21T11:21:34;2.23;;;1.60;;
4504;SDS011;2265;48.794;9.520;2023-03-21T11:24:03;3.60;;;1.70;;
4504;SDS011;2265;48.794;9.520;2023-03-21T11:26:33;3.77;;;1.60;;
4504;SDS011;2265;48.794;9.520;2023-03-21T11:29:08;2.83;;;1.90;;
4504;SDS011;2265;48.794;9.520;2023-03-21T11:37:01;2.23;;;1.80;;
4504;SDS011;2265;48.794;9.520;2023-03-21T11:39:37;2.60;;;1.77;;
4504;SDS011;2265;48.794;9.520;2023-03-21T11:42:24;2.00;;;1.60;;
4504;SDS011;2265;48.794;9.520;2023-03-21T11:45:03;3.13;;;1.80;;
4504;SDS011;2265;48.794;9.520;2023-03-21T11:47:37;1.67;;;1.40;;
4504;SDS011;2265;48.794;9.520;2023-03-21T11:50:14;1.63;;;1.50;;
4504;SDS011;2265;48.794;9.520;2023-03-21T11:52:46;3.27;;;1.70;;
4504;SDS011;2265;48.794;9.520;2023-03-21T11:55:30;2.30;;;1.70;;
4504;SDS011;2265;48.794;9.520;2023-03-21T11:58:12;1.90;;;1.53;;
4504;SDS011;2265;48.794;9.520;2023-03-21T12:00:59;3.00;;;1.60;;
4504;SDS011;2265;48.794;9.520;2023-03-21T12:03:54;1.87;;;1.63;;
4504;SDS011;2265;48.794;9.520;2023-03-21T12:06:30;3.37;;;1.50;;
4504;SDS011;2265;48.794;9.520;2023-03-21T12:09:13;2.33;;;1.50;;
4504;SDS011;2265;48.794;9.520;2023-03-21T12:14:46;2.03;;;1.40;;
4504;SDS011;2265;48.794;9.520;2023-03-21T12:17:24;2.37;;;1.77;;
4504;SDS011;2265;48.794;9.520;2023-03-21T12:20:10;2.43;;;1.50;;
4504;SDS011;2265;48.794;9.520;2023-03-21T12:22:50;2.07;;;1.60;;
4504;SDS011;2265;48.794;9.520;2023-03-21T12:25:28;3.77;;;1.83;;
4504;SDS011;2265;48.794;9.520;2023-03-21T12:28:03;3.00;;;1.90;;
4504;SDS011;2265;48.794;9.520;2023-03-21T12:30:40;1.60;;;1.40;;
4504;SDS011;2265;48.794;9.520;2023-03-21T12:36:16;3.67;;;1.77;;
4504;SDS011;2265;48.794;9.520;2023-03-21T12:39:03;2.33;;;1.70;;
4504;SDS011;2265;48.794;9.520;2023-03-21T12:41:41;2.70;;;1.80;;
4504;SDS011;2265;48.794;9.520;2023-03-21T12:44:12;1.70;;;1.70;;
4504;SDS011;2265;48.794;9.520;2023-03-21T12:46:43;2.13;;;1.63;;
4504;SDS011;2265;48.794;9.520;2023-03-21T12:49:15;2.43;;;1.80;;
4504;SDS011;2265;48.794;9.520;2023-03-21T12:51:52;1.87;;;1.60;;
4504;SDS011;2265;48.794;9.520;2023-03-21T12:54:27;1.40;;;1.40;;
4504;SDS011;2265;48.794;9.520;2023-03-21T12:56:59;1.90;;;1.50;;
4504;SDS011;2265;48.794;9.520;2023-03-21T12:59:32;1.70;;;1.50;;
4504;SDS011;2265;48.794;9.520;2023-03-21T13:02:06;2.93;;;1.90;;
4504;SDS011;2265;48.794;9.520;2023-03-21T13:04:44;1.60;;;1.50;;
4504;SDS011;2265;48.794;9.520;2023-03-21T13:07:17;1.63;;;1.57;;
4504;SDS011;2265;48.794;9.520;2023-03-21T13:09:47;1.87;;;1.63;;
4504;SDS011;2265;48.794;9.520;2023-03-21T13:12:20;3.03;;;1.83;;
4504;SDS011;2265;48.794;9.520;2023-03-21T13:15:13;1.97;;;1.50;;
4504;SDS011;2265;48.794;9.520;2023-03-21T13:18:00;1.60;;;1.50;;
4504;SDS011;2265;48.794;9.520;2023-03-21T13:20:33;1.80;;;1.40;;
4504;SDS011;2265;48.794;9.520;2023-03-21T13:23:08;2.90;;;1.80;;
4504;SDS011;2265;48.794;9.520;2023-03-21T13:25:40;1.60;;;1.40;;
4504;SDS011;2265;48.794;9.520;2023-03-21T13:28:15;3.50;;;2.17;;
4504;SDS011;2265;48.794;9.520;2023-03-21T13:30:50;2.17;;;1.50;;
4504;SDS011;2265;48.794;9.520;2023-03-21T13:33:21;2.60;;;1.87;;
4504;SDS011;2265;48.794;9.520;2023-03-21T13:35:54;6.70;;;1.87;;
4504;SDS011;2265;48.794;9.520;2023-03-21T13:38:29;2.13;;;1.63;;
4504;SDS011;2265;48.794;9.520;2023-03-21T13:41:00;4.30;;;1.83;;
4504;SDS011;2265;48.794;9.520;2023-03-21T13:43:33;2.53;;;1.70;;
4504;SDS011;2265;48.794;9.520;2023-03-21T13:46:08;2.50;;;1.53;;
4504;SDS011;2265;48.794;9.520;2023-03-21T13:48:40;2.43;;;1.60;;
4504;SDS011;2265;48.794;9.520;2023-03-21T13:54:15;1.70;;;1.60;;
4504;SDS011;2265;48.794;9.520;2023-03-21T13:56:48;1.63;;;1.30;;
4504;SDS011;2265;48.794;9.520;2023-03-21T13:59:17;2.17;;;1.77;;
4504;SDS011;2265;48.794;9.520;2023-03-21T14:02:11;2.30;;;1.57;;
4504;SDS011;2265;48.794;9.520;2023-03-21T14:05:00;1.93;;;1.70;;
4504;SDS011;2265;48.794;9.520;2023-03-21T14:07:28;2.10;;;1.80;;
4504;SDS011;2265;48.794;9.520;2023-03-21T14:09:59;2.43;;;1.70;;
4504;SDS011;2265;48.794;9.520;2023-03-21T14:12:30;1.67;;;1.60;;
4504;SDS011;2265;48.794;9.520;2023-03-21T14:15:05;1.70;;;1.70;;
4504;SDS011;2265;48.794;9.520;2023-03-21T14:17:47;4.23;;;1.70;;
4504;SDS011;2265;48.794;9.520;2023-03-21T14:20:17;1.87;;;1.70;;
4504;SDS011;2265;48.794;9.520;2023-03-21T14:22:46;2.03;;;1.70;;
4504;SDS011;2265;48.794;9.520;2023-03-21T14:25:15;3.00;;;1.77;;
4504;SDS011;2265;48.794;9.520;2023-03-21T14:27:44;3.03;;;1.63;;
4504;SDS011;2265;48.794;9.520;2023-03-21T14:30:18;2.20;;;1.70;;
4504;SDS011;2265;48.794;9.520;2023-03-21T14:32:49;1.97;;;1.53;;
4504;SDS011;2265;48.794;9.520;2023-03-21T14:35:19;4.30;;;1.90;;
4504;SDS011;2265;48.794;9.520;2023-03-21T14:37:47;2.57;;;1.93;;
4504;SDS011;2265;48.794;9.520;2023-03-21T14:40:20;2.80;;;2.10;;
4504;SDS011;2265;48.794;9.520;2023-03-21T14:42:49;3.60;;;1.87;;
4504;SDS011;2265;48.794;9.520;2023-03-21T14:45:19;2.00;;;1.70;;
4504;SDS011;2265;48.794;9.520;2023-03-21T14:47:57;3.07;;;1.93;;
4504;SDS011;2265;48.794;9.520;2023-03-21T14:50:28;1.97;;;1.87;;
4504;SDS011;2265;48.794;9.520;2023-03-21T14:53:04;2.20;;;1.70;;
4504;SDS011;2265;48.794;9.520;2023-03-21T14:55:33;3.20;;;1.70;;
4504;SDS011;2265;48.794;9.520;2023-03-21T14:58:09;3.23;;;2.10;;
4504;SDS011;2265;48.794;9.520;2023-03-21T15:00:41;2.90;;;1.90;;
4504;SDS011;2265;48.794;9.520;2023-03-21T15:03:10;2.50;;;1.90;;
4504;SDS011;2265;48.794;9.520;2023-03-21T15:05:40;5.17;;;2.53;;
4504;SDS011;2265;48.794;9.520;2023-03-21T15:08:08;2.67;;;2.00;;
4504;SDS011;2265;48.794;9.520;2023-03-21T15:10:39;3.03;;;1.77;;
4504;SDS011;2265;48.794;9.520;2023-03-21T15:13:14;2.67;;;1.87;;
4504;SDS011;2265;48.794;9.520;2023-03-21T15:15:44;3.33;;;1.77;;
4504;SDS011;2265;48.794;9.520;2023-03-21T15:18:24;6.47;;;1.83;;
4504;SDS011;2265;48.794;9.520;2023-03-21T15:20:56;6.20;;;1.80;;
4504;SDS011;2265;48.794;9.520;2023-03-21T15:23:26;2.20;;;1.80;;
4504;SDS011;2265;48.794;9.520;2023-03-21T15:25:56;1.67;;;1.43;;
4504;SDS011;2265;48.794;9.520;2023-03-21T15:28:27;4.17;;;1.90;;
4504;SDS011;2265;48.794;9.520;2023-03-21T15:30:55;2.00;;;1.80;;
4504;SDS011;2265;48.794;9.520;2023-03-21T15:33:24;2.77;;;1.80;;
4504;SDS011;2265;48.794;9.520;2023-03-21T15:35:52;2.00;;;1.70;;
4504;SDS011;2265;48.794;9.520;2023-03-21T15:38:22;1.70;;;1.70;;
4504;SDS011;2265;48.794;9.520;2023-03-21T15:43:41;2.30;;;1.60;;
4504;SDS011;2265;48.794;9.520;2023-03-21T15:46:12;1.83;;;1.77;;
4504;SDS011;2265;48.794;9.520;2023-03-21T15:48:43;2.80;;;1.80;;
4504;SDS011;2265;48.794;9.520;2023-03-21T15:51:13;2.93;;;1.97;;
4504;SDS011;2265;48.794;9.520;2023-03-21T15:53:46;4.30;;;2.43;;
4504;SDS011;2265;48.794;9.520;2023-03-21T15:56:16;2.73;;;1.93;;
4504;SDS011;2265;48.794;9.520;2023-03-21T15:58:51;2.87;;;1.83;;
4504;SDS011;2265;48.794;9.520;2023-03-21T16:01:19;2.57;;;1.80;;
4504;SDS011;2265;48.794;9.520;2023-03-21T16:03:55;2.07;;;1.50;;
4504;SDS011;2265;48.794;9.520;2023-03-21T16:06:28;4.30;;;2.07;;
4504;SDS011;2265;48.794;9.520;2023-03-21T16:09:02;2.50;;;1.90;;
4504;SDS011;2265;48.794;9.520;2023-03-21T16:11:38;3.07;;;2.07;;